Time;durP1;ratioP1;P1;durP2;ratioP2;P2;SDS_P1;SDS_P2;PMS_P1;PMS_P2;Temp;Humidity;BMP_temperature;BMP_pressure;BME280_temperature;BME280_humidity;BME280_pressure;Samples;Min_cycle;Max_cycle;Signal;HPM_P1;HPM_P2
2022/03/03 00:01:56;;;;;;;20.60;17.80;;;3.90;90.80;;;;;;10445519;28;20225;-80
2022/03/03 00:06:59;;;;;;;20.07;17.53;;;3.90;92.20;;;;;;10446062;28;20201;-79
2022/03/03 00:12:02;;;;;;;19.53;17.63;;;3.90;92.40;;;;;;10444906;28;20770;-77
2022/03/03 00:17:04;;;;;;;21.63;18.23;;;3.90;92.60;;;;;;10443633;28;20261;-78
2022/03/03 00:22:08;;;;;;;19.13;17.10;;;3.90;92.70;;;;;;10447519;28;20244;-78
2022/03/03 00:27:11;;;;;;;18.97;16.73;;;3.90;92.50;;;;;;10445365;28;20207;-77
2022/03/03 00:32:13;;;;;;;23.37;17.77;;;3.90;92.10;;;;;;10425712;28;20228;-77
2022/03/03 00:37:17;;;;;;;20.20;18.10;;;3.90;91.60;;;;;;10445751;28;20228;-77
2022/03/03 00:42:19;;;;;;;21.47;19.17;;;3.90;91.90;;;;;;10435517;28;20235;-80
2022/03/03 00:47:21;;;;;;;22.70;19.83;;;3.80;91.90;;;;;;10444618;28;20193;-77
2022/03/03 00:52:25;;;;;;;21.70;19.20;;;3.80;91.90;;;;;;10442935;28;20220;-76
2022/03/03 00:57:27;;;;;;;19.80;17.73;;;3.70;91.90;;;;;;10444015;28;20227;-76
2022/03/03 01:02:29;;;;;;;20.10;18.00;;;3.70;92.20;;;;;;10428023;28;20312;-78
2022/03/03 01:07:32;;;;;;;20.87;18.00;;;3.70;92.10;;;;;;10443922;28;20197;-77
2022/03/03 01:12:35;;;;;;;21.57;19.07;;;3.60;91.60;;;;;;10449383;28;20227;-76
2022/03/03 01:17:37;;;;;;;23.30;19.03;;;3.60;91.80;;;;;;10452470;28;20252;-76
2022/03/03 01:22:41;;;;;;;21.83;19.57;;;3.60;92.40;;;;;;10453213;28;20550;-76
2022/03/03 01:27:43;;;;;;;23.37;20.03;;;3.50;91.10;;;;;;10447042;28;20204;-77
2022/03/03 01:32:45;;;;;;;20.47;18.27;;;3.50;91.20;;;;;;10452106;28;20705;-77
2022/03/03 01:37:49;;;;;;;21.67;19.43;;;3.40;90.70;;;;;;10453972;28;20292;-76
2022/03/03 01:42:51;;;;;;;22.27;19.47;;;3.30;90.70;;;;;;10452408;28;20225;-78
2022/03/03 01:47:53;;;;;;;22.50;20.10;;;3.30;90.50;;;;;;10450943;28;20554;-79
2022/03/03 01:52:57;;;;;;;23.07;20.27;;;3.20;90.50;;;;;;10451268;28;20216;-79
2022/03/03 01:58:00;;;;;;;25.23;21.93;;;3.10;92.00;;;;;;10450958;28;20326;-77
2022/03/03 02:03:02;;;;;;;24.53;22.03;;;3.20;92.60;;;;;;10449546;28;20722;-76
2022/03/03 02:08:06;;;;;;;22.23;20.03;;;3.20;92.20;;;;;;10447312;28;20197;-78
2022/03/03 02:13:08;;;;;;;23.80;20.93;;;3.30;92.50;;;;;;10451444;28;20268;-78
2022/03/03 02:18:10;;;;;;;24.93;21.23;;;3.30;92.20;;;;;;10451402;28;20220;-80
2022/03/03 02:23:18;;;;;;;24.23;21.47;;;3.40;91.80;;;;;;10451024;28;20229;-77
2022/03/03 02:28:20;;;;;;;24.50;22.03;;;3.40;91.20;;;;;;10450891;28;20197;-80
2022/03/03 02:33:22;;;;;;;28.63;22.00;;;3.30;92.00;;;;;;10482214;22;20248;-84
2022/03/03 02:38:26;;;;;;;23.30;20.37;;;3.40;91.70;;;;;;10446792;28;20256;-84
2022/03/03 02:43:28;;;;;;;23.47;20.10;;;3.30;92.10;;;;;;10415951;28;20560;-85
2022/03/03 02:48:30;;;;;;;23.73;21.17;;;3.30;91.90;;;;;;10438687;28;20228;-84
2022/03/03 02:53:34;;;;;;;22.67;20.27;;;3.30;92.20;;;;;;10459934;28;20229;-82
2022/03/03 02:58:36;;;;;;;21.93;19.37;;;3.30;91.60;;;;;;10448146;28;20585;-81
2022/03/03 03:03:39;;;;;;;28.63;20.53;;;3.30;91.10;;;;;;10422005;28;20247;-81
2022/03/03 03:08:43;;;;;;;22.93;20.57;;;3.20;91.90;;;;;;10451758;28;20193;-81
2022/03/03 03:13:45;;;;;;;24.10;20.67;;;3.20;92.10;;;;;;10445040;28;20758;-81
2022/03/03 03:18:47;;;;;;;22.37;19.83;;;3.20;91.50;;;;;;10420323;28;20278;-81
2022/03/03 03:23:50;;;;;;;22.40;20.03;;;3.10;91.40;;;;;;10417634;28;20307;-80
2022/03/03 03:28:52;;;;;;;20.83;18.70;;;3.10;91.70;;;;;;10438491;28;20198;-84
2022/03/03 03:33:55;;;;;;;23.70;21.23;;;3.00;92.20;;;;;;10415247;28;20240;-82
2022/03/03 03:38:59;;;;;;;21.47;19.20;;;3.00;91.90;;;;;;10422455;28;20210;-85
2022/03/03 03:44:01;;;;;;;23.37;20.50;;;2.90;90.50;;;;;;10424862;28;20272;-83
2022/03/03 03:49:05;;;;;;;22.03;19.70;;;2.80;91.10;;;;;;10414632;28;20244;-82
2022/03/03 03:54:08;;;;;;;20.90;18.80;;;2.70;91.50;;;;;;10434493;28;20222;-82
2022/03/03 03:59:11;;;;;;;24.50;22.00;;;2.70;91.40;;;;;;10412406;28;20417;-84
2022/03/03 04:04:13;;;;;;;22.90;18.77;;;2.70;91.70;;;;;;10434382;28;20217;-83
2022/03/03 04:09:16;;;;;;;25.50;22.23;;;2.60;90.80;;;;;;10422898;28;20193;-83
2022/03/03 04:14:18;;;;;;;23.17;20.23;;;2.60;91.70;;;;;;10434184;28;20249;-81
2022/03/03 04:19:21;;;;;;;25.53;23.03;;;2.60;92.10;;;;;;10443371;28;20295;-81
2022/03/03 04:24:24;;;;;;;23.53;21.07;;;2.60;92.60;;;;;;10402805;28;20225;-81
2022/03/03 04:29:27;;;;;;;24.13;21.53;;;2.60;92.40;;;;;;10427950;28;20198;-81
2022/03/03 04:34:29;;;;;;;23.07;20.60;;;2.60;92.60;;;;;;10454085;28;20244;-81
2022/03/03 04:39:32;;;;;;;22.80;20.33;;;2.70;92.50;;;;;;10425349;28;20236;-81
2022/03/03 04:44:35;;;;;;;24.50;21.90;;;2.80;91.20;;;;;;10444076;28;20229;-82
2022/03/03 04:49:37;;;;;;;24.83;22.20;;;2.70;92.20;;;;;;10443671;28;20280;-81
2022/03/03 04:54:40;;;;;;;22.43;20.23;;;2.70;91.80;;;;;;10423152;28;20224;-82
2022/03/03 04:59:42;;;;;;;25.47;22.70;;;2.70;92.20;;;;;;10441229;28;20222;-81
2022/03/03 05:04:44;;;;;;;27.73;22.87;;;2.70;92.60;;;;;;10426052;28;20691;-82
2022/03/03 05:09:48;;;;;;;25.10;22.13;;;2.70;92.70;;;;;;10458453;28;20196;-82
2022/03/03 05:14:50;;;;;;;22.80;20.40;;;2.70;91.50;;;;;;10451052;28;20220;-81
2022/03/03 05:19:52;;;;;;;24.30;21.80;;;2.60;90.90;;;;;;10444850;28;20224;-81
2022/03/03 05:24:55;;;;;;;25.20;21.00;;;2.50;91.30;;;;;;10443874;28;20250;-81
2022/03/03 05:29:58;;;;;;;30.80;23.70;;;2.40;91.70;;;;;;10441362;28;20224;-81
2022/03/03 05:35:00;;;;;;;26.23;23.40;;;2.40;92.20;;;;;;10441028;28;20656;-82
2022/03/03 05:40:05;;;;;;;30.10;24.17;;;2.40;92.20;;;;;;10435570;28;20220;-82
2022/03/03 05:45:08;;;;;;;27.90;23.07;;;2.40;92.50;;;;;;10426900;28;20221;-82
2022/03/03 05:50:10;;;;;;;26.00;22.77;;;2.40;92.10;;;;;;10433645;28;20200;-81
2022/03/03 05:55:14;;;;;;;24.43;21.83;;;2.40;92.50;;;;;;10424734;28;20712;-81
2022/03/03 06:00:18;;;;;;;27.73;22.77;;;2.40;91.60;;;;;;10444815;28;20257;-83
2022/03/03 06:05:21;;;;;;;26.23;23.07;;;2.30;91.60;;;;;;10447926;28;20315;-83
2022/03/03 06:10:26;;;;;;;25.87;22.70;;;2.20;92.20;;;;;;10479915;28;20193;-84
2022/03/03 06:15:29;;;;;;;27.27;23.43;;;2.30;93.00;;;;;;10456454;28;20600;-83
2022/03/03 06:20:34;;;;;;;28.80;22.63;;;2.30;92.10;;;;;;10442902;28;20348;-83
2022/03/03 06:25:37;;;;;;;26.80;23.43;;;2.40;92.10;;;;;;10441258;28;20232;-84
2022/03/03 06:30:40;;;;;;;24.33;21.20;;;2.40;91.90;;;;;;10439368;28;20205;-84
2022/03/03 06:35:42;;;;;;;28.47;22.40;;;2.40;92.60;;;;;;10461162;28;20723;-84
2022/03/03 06:40:46;;;;;;;27.37;23.83;;;2.50;92.90;;;;;;10461271;28;20220;-83
2022/03/03 06:45:48;;;;;;;23.37;20.87;;;2.50;91.50;;;;;;10461725;28;20232;-83
2022/03/03 06:50:52;;;;;;;27.40;22.87;;;2.50;91.10;;;;;;10458812;28;20204;-82
2022/03/03 06:56:03;;;;;;;24.33;21.37;;;2.50;92.90;;;;;;10454100;28;20225;-83
2022/03/03 07:01:07;;;;;;;27.60;23.70;;;2.50;92.80;;;;;;10443549;28;20221;-83
2022/03/03 07:06:10;;;;;;;26.07;22.53;;;2.60;93.00;;;;;;10445870;28;20225;-83
2022/03/03 07:11:16;;;;;;;26.10;23.17;;;2.70;92.90;;;;;;10450507;28;20284;-83
2022/03/03 07:16:23;;;;;;;27.43;24.10;;;2.70;92.80;;;;;;10445221;28;20315;-83
2022/03/03 07:21:32;;;;;;;28.77;23.37;;;2.80;92.90;;;;;;10446365;28;20271;-83
2022/03/03 07:26:37;;;;;;;29.10;24.17;;;2.90;93.20;;;;;;10466764;28;20208;-83
2022/03/03 07:31:47;;;;;;;27.27;22.03;;;3.00;92.80;;;;;;10431044;28;20221;-83
2022/03/03 07:36:50;;;;;;;26.10;23.00;;;3.20;91.60;;;;;;10459094;28;20201;-83
2022/03/03 07:41:54;;;;;;;32.53;23.33;;;3.40;90.60;;;;;;10441737;28;20255;-83
2022/03/03 07:46:58;;;;;;;33.63;25.30;;;3.30;91.60;;;;;;10458291;28;20791;-82
2022/03/03 07:52:02;;;;;;;30.80;25.57;;;3.30;92.10;;;;;;10432858;28;20213;-83
2022/03/03 07:57:11;;;;;;;29.60;24.33;;;3.40;92.90;;;;;;10430837;28;20236;-83
2022/03/03 08:02:20;;;;;;;27.17;24.00;;;3.60;92.90;;;;;;10448042;28;20256;-83
2022/03/03 08:07:22;;;;;;;27.13;24.20;;;3.70;92.40;;;;;;10444595;28;20213;-84
2022/03/03 08:12:26;;;;;;;29.63;23.33;;;3.90;92.80;;;;;;10442976;28;20236;-84
2022/03/03 08:17:28;;;;;;;35.03;24.87;;;4.10;92.70;;;;;;10453059;28;20243;-83
2022/03/03 08:22:30;;;;;;;27.90;23.47;;;4.20;92.10;;;;;;10441149;28;20236;-84
2022/03/03 08:27:36;;;;;;;31.90;23.57;;;4.40;92.20;;;;;;10438110;28;20665;-83
2022/03/03 08:32:41;;;;;;;29.70;24.47;;;4.60;92.40;;;;;;10416302;28;20235;-84
2022/03/03 08:37:45;;;;;;;37.30;23.60;;;4.80;92.30;;;;;;10436783;28;20288;-84
2022/03/03 08:42:56;;;;;;;31.90;24.27;;;4.90;91.80;;;;;;10440130;28;20229;-84
2022/03/03 08:48:00;;;;;;;27.07;24.17;;;5.10;91.40;;;;;;10458953;28;20194;-84
2022/03/03 08:53:04;;;;;;;33.07;24.87;;;5.30;91.60;;;;;;10428383;28;20641;-84
2022/03/03 08:58:09;;;;;;;27.00;23.43;;;5.40;91.30;;;;;;10449761;28;20605;-84
2022/03/03 09:03:11;;;;;;;28.23;24.60;;;5.60;90.90;;;;;;10425141;28;20263;-84
2022/03/03 09:08:13;;;;;;;27.40;24.50;;;5.70;91.10;;;;;;10446195;28;20193;-84
2022/03/03 09:13:17;;;;;;;30.87;25.30;;;5.90;90.60;;;;;;10441574;28;20225;-84
2022/03/03 09:18:19;;;;;;;29.57;24.33;;;6.00;90.20;;;;;;10422768;28;20704;-85
2022/03/03 09:23:22;;;;;;;34.53;25.13;;;6.20;90.80;;;;;;10442707;28;20263;-83
2022/03/03 09:28:25;;;;;;;27.33;24.37;;;6.40;90.90;;;;;;10428206;28;20197;-85
2022/03/03 09:33:28;;;;;;;29.73;23.93;;;6.60;90.30;;;;;;10449336;28;20225;-83
2022/03/03 09:38:30;;;;;;;29.63;26.40;;;6.80;89.30;;;;;;10426455;28;20209;-84
2022/03/03 09:43:33;;;;;;;29.87;25.17;;;7.00;89.80;;;;;;10467012;28;20251;-84
2022/03/03 09:48:36;;;;;;;27.37;24.47;;;7.30;87.90;;;;;;10467681;28;20243;-84
2022/03/03 09:53:40;;;;;;;26.90;22.83;;;7.40;86.90;;;;;;10461930;28;20221;-84
2022/03/03 09:58:44;;;;;;;31.80;26.60;;;7.70;86.40;;;;;;10455794;28;20213;-85
2022/03/03 10:03:48;;;;;;;30.20;25.60;;;7.80;85.10;;;;;;10467319;28;20217;-84
2022/03/03 10:08:51;;;;;;;27.27;23.27;;;8.00;85.10;;;;;;10435453;28;20224;-85
2022/03/03 10:13:54;;;;;;;28.33;25.17;;;8.10;85.90;;;;;;10434141;28;20232;-84
2022/03/03 10:19:03;;;;;;;27.17;23.57;;;8.20;82.90;;;;;;10451801;28;20649;-84
2022/03/03 10:24:16;;;;;;;28.40;24.70;;;8.10;85.40;;;;;;10455426;28;20221;-84
2022/03/03 10:29:22;;;;;;;29.43;23.43;;;8.00;85.20;;;;;;10452689;28;20193;-83
2022/03/03 10:34:29;;;;;;;24.13;21.50;;;8.00;84.80;;;;;;10437252;28;20232;-84
2022/03/03 10:39:41;;;;;;;24.80;21.97;;;7.90;84.60;;;;;;10446324;28;20217;-83
2022/03/03 10:44:45;;;;;;;24.57;22.00;;;7.80;85.00;;;;;;10450233;28;20236;-83
2022/03/03 10:49:50;;;;;;;24.50;21.67;;;7.80;85.10;;;;;;10464109;28;20196;-84
2022/03/03 10:54:54;;;;;;;22.40;19.73;;;7.80;85.30;;;;;;10448375;28;20221;-83
2022/03/03 10:59:59;;;;;;;24.63;21.00;;;7.80;85.30;;;;;;10470327;28;20213;-84
2022/03/03 11:05:02;;;;;;;25.50;22.03;;;7.80;85.10;;;;;;10461106;28;20209;-83
2022/03/03 11:10:05;;;;;;;26.50;22.50;;;7.80;85.40;;;;;;10442972;28;20228;-84
2022/03/03 11:15:10;;;;;;;23.47;21.07;;;7.80;85.90;;;;;;10440546;28;20224;-83
2022/03/03 11:20:14;;;;;;;25.63;22.83;;;7.80;85.70;;;;;;10450934;28;20776;-84
2022/03/03 11:25:20;;;;;;;21.87;19.47;;;7.90;87.40;;;;;;10471903;28;20259;-84
2022/03/03 11:30:30;;;;;;;22.07;19.60;;;7.90;87.70;;;;;;10436525;28;20201;-84
2022/03/03 11:35:47;;;;;;;23.83;21.23;;;7.90;85.70;;;;;;10459702;28;20316;-83
2022/03/03 11:40:57;;;;;;;21.83;19.50;;;7.90;85.10;;;;;;10436087;28;20661;-84
2022/03/03 11:46:01;;;;;;;23.93;21.00;;;7.90;85.50;;;;;;10462266;28;20661;-84
2022/03/03 11:51:32;;;;;;;23.43;20.90;;;8.00;84.70;;;;;;10444116;28;20231;-84
2022/03/03 11:56:34;;;;;;;23.50;19.80;;;8.00;85.90;;;;;;10430686;28;20216;-82
2022/03/03 12:01:54;;;;;;;21.67;19.23;;;8.00;85.40;;;;;;10455055;28;20217;-85
2022/03/03 12:06:57;;;;;;;25.50;20.03;;;8.10;84.50;;;;;;10409270;28;20189;-86
2022/03/03 12:12:10;;;;;;;22.57;19.70;;;8.20;80.30;;;;;;10422233;28;20308;-85
2022/03/03 12:17:37;;;;;;;24.27;20.20;;;8.20;82.00;;;;;;10440387;28;20197;-84
2022/03/03 12:23:00;;;;;;;23.27;19.93;;;8.30;84.10;;;;;;10410430;28;20662;-83
2022/03/03 12:28:18;;;;;;;22.70;20.30;;;8.40;83.40;;;;;;10425092;28;20246;-84
2022/03/03 12:33:23;;;;;;;21.30;19.03;;;8.40;81.80;;;;;;10439423;28;20229;-83
2022/03/03 12:38:25;;;;;;;22.77;20.27;;;8.50;79.00;;;;;;10402164;28;20254;-85
2022/03/03 12:43:36;;;;;;;24.50;21.83;;;8.50;79.70;;;;;;10417395;28;20272;-84
2022/03/03 12:48:41;;;;;;;21.90;19.50;;;8.50;83.20;;;;;;10416855;28;20205;-87
2022/03/03 12:53:47;;;;;;;24.57;20.73;;;8.60;81.80;;;;;;10412856;28;20286;-86
2022/03/03 12:58:50;;;;;;;23.30;19.77;;;8.60;79.70;;;;;;10421420;28;20201;-85
2022/03/03 13:03:54;;;;;;;25.90;21.87;;;8.70;83.10;;;;;;10439917;28;20225;-84
2022/03/03 13:08:59;;;;;;;25.27;21.10;;;8.70;80.60;;;;;;10409864;28;20209;-84
2022/03/03 13:14:06;;;;;;;24.63;21.70;;;8.80;79.10;;;;;;10453595;28;20253;-84
2022/03/03 13:19:09;;;;;;;25.13;22.40;;;8.90;78.90;;;;;;10416315;28;20224;-85
2022/03/03 13:24:12;;;;;;;27.50;24.60;;;9.00;79.70;;;;;;10438404;28;20221;-85
2022/03/03 13:29:16;;;;;;;26.63;23.77;;;9.00;81.50;;;;;;10436850;28;20625;-86
2022/03/03 13:34:24;;;;;;;30.27;21.97;;;9.10;81.20;;;;;;10410621;28;20236;-86
2022/03/03 13:39:28;;;;;;;31.83;25.10;;;9.10;81.00;;;;;;10451272;28;20643;-86
2022/03/03 13:44:32;;;;;;;25.60;22.10;;;9.30;79.60;;;;;;10420950;28;20316;-85
2022/03/03 13:49:37;;;;;;;28.33;24.50;;;9.30;81.10;;;;;;10431921;28;20201;-86
2022/03/03 13:54:41;;;;;;;26.47;22.07;;;9.30;82.20;;;;;;10451895;28;20271;-85
2022/03/03 13:59:53;;;;;;;27.27;23.37;;;9.30;79.10;;;;;;10436306;28;20210;-87
2022/03/03 14:05:05;;;;;;;24.70;21.93;;;9.40;79.40;;;;;;10447290;28;20236;-83
2022/03/03 14:10:09;;;;;;;27.00;23.73;;;9.50;75.30;;;;;;10427229;28;20284;-83
2022/03/03 14:15:19;;;;;;;26.10;22.77;;;9.60;78.10;;;;;;10426242;28;20221;-84
2022/03/03 14:20:26;;;;;;;28.77;24.60;;;9.60;79.80;;;;;;10432393;28;20300;-84
2022/03/03 14:25:33;;;;;;;26.80;22.37;;;9.60;78.00;;;;;;10417430;28;20213;-85
2022/03/03 14:30:44;;;;;;;22.37;19.97;;;9.60;79.30;;;;;;10437054;28;20677;-85
2022/03/03 14:35:48;;;;;;;25.17;21.43;;;9.70;75.80;;;;;;10452327;28;20217;-84
2022/03/03 14:40:50;;;;;;;22.70;20.17;;;9.70;77.80;;;;;;10501152;22;20216;-79
2022/03/03 14:45:52;;;;;;;22.27;19.97;;;9.70;76.10;;;;;;10496239;28;20218;-79
2022/03/03 14:50:56;;;;;;;23.50;20.93;;;9.70;77.40;;;;;;10509001;28;20233;-77
2022/03/03 14:55:58;;;;;;;23.93;20.93;;;9.70;78.20;;;;;;10493967;28;20280;-79
2022/03/03 15:01:01;;;;;;;23.17;20.67;;;9.70;77.40;;;;;;10480826;28;20231;-79
2022/03/03 15:06:05;;;;;;;21.47;19.13;;;9.70;76.00;;;;;;10490605;28;20227;-79
2022/03/03 15:11:08;;;;;;;20.87;18.60;;;9.80;75.50;;;;;;10503082;28;20303;-80
2022/03/03 15:16:10;;;;;;;20.00;18.00;;;9.80;76.60;;;;;;10526095;28;20239;-79
2022/03/03 15:21:13;;;;;;;21.40;18.93;;;9.80;76.30;;;;;;10534028;28;20219;-79
2022/03/03 15:26:16;;;;;;;24.30;19.00;;;9.80;75.70;;;;;;10540843;28;20613;-80
2022/03/03 15:31:18;;;;;;;24.00;19.40;;;9.80;77.10;;;;;;10534873;28;20236;-79
2022/03/03 15:41:43;;;;;;;21.27;18.97;;;9.80;78.70;;;;;;10516853;28;20639;-80
2022/03/03 15:46:46;;;;;;;25.03;17.67;;;9.80;77.00;;;;;;10498639;28;20282;-79
2022/03/03 15:51:51;;;;;;;21.87;17.67;;;9.80;80.20;;;;;;10516261;28;20208;-79
2022/03/03 15:56:54;;;;;;;22.70;16.77;;;9.70;80.20;;;;;;10528457;28;20284;-81
2022/03/03 16:01:56;;;;;;;18.47;15.63;;;9.70;81.10;;;;;;10511291;28;20215;-81
2022/03/03 16:07:00;;;;;;;19.53;17.43;;;9.70;81.80;;;;;;10500852;28;20203;-79
2022/03/03 16:12:03;;;;;;;25.00;18.37;;;9.60;78.50;;;;;;10507109;28;20234;-79
2022/03/03 16:17:06;;;;;;;18.20;15.97;;;9.60;79.80;;;;;;10517150;28;20667;-79
2022/03/03 16:22:09;;;;;;;17.03;15.33;;;9.60;82.00;;;;;;10539245;28;20248;-79
2022/03/03 16:27:11;;;;;;;16.07;14.47;;;9.60;82.60;;;;;;10529127;28;20202;-79
2022/03/03 16:32:20;;;;;;;18.17;15.07;;;9.50;82.60;;;;;;10489527;28;20246;-79
2022/03/03 16:37:25;;;;;;;17.80;15.90;;;9.50;82.90;;;;;;10514025;28;20671;-79
2022/03/03 16:42:27;;;;;;;20.87;16.23;;;9.40;82.40;;;;;;10511645;28;20733;-79
2022/03/03 16:47:29;;;;;;;17.60;15.70;;;9.30;84.10;;;;;;10532781;28;20642;-80
2022/03/03 16:52:33;;;;;;;20.60;16.63;;;9.20;82.40;;;;;;10532328;28;20247;-79
2022/03/03 16:57:35;;;;;;;17.73;15.70;;;9.20;83.30;;;;;;10487668;28;20214;-79
2022/03/03 17:02:37;;;;;;;21.07;17.00;;;9.10;84.00;;;;;;10530464;28;20280;-79
2022/03/03 17:07:40;;;;;;;20.63;16.00;;;9.00;84.10;;;;;;10515939;28;20192;-79
2022/03/03 17:12:43;;;;;;;18.00;16.07;;;8.90;81.00;;;;;;10515117;28;20224;-79
2022/03/03 17:17:45;;;;;;;20.30;15.83;;;9.00;78.30;;;;;;10498386;28;20205;-79
2022/03/03 17:22:50;;;;;;;17.33;15.57;;;8.90;74.80;;;;;;10510439;28;20228;-81
2022/03/03 17:27:52;;;;;;;22.37;20.13;;;8.80;74.30;;;;;;10461521;28;20189;-80
2022/03/03 17:32:54;;;;;;;22.13;18.37;;;8.60;75.40;;;;;;10505848;28;20230;-79
2022/03/03 17:37:57;;;;;;;19.13;17.07;;;8.40;75.70;;;;;;10460250;28;20215;-79
2022/03/03 17:43:00;;;;;;;17.23;14.90;;;8.30;76.50;;;;;;10502368;28;20658;-79
2022/03/03 17:48:09;;;;;;;19.37;15.77;;;8.10;76.20;;;;;;10486308;28;20285;-79
2022/03/03 17:53:13;;;;;;;23.43;18.90;;;8.00;77.90;;;;;;10453253;28;20188;-79
2022/03/03 17:58:15;;;;;;;26.37;23.37;;;7.80;77.80;;;;;;10476475;28;20212;-78
2022/03/03 18:03:17;;;;;;;52.23;39.77;;;7.80;80.00;;;;;;10488088;28;20204;-78
2022/03/03 18:08:21;;;;;;;29.43;25.33;;;7.70;77.50;;;;;;10502227;28;20189;-78
2022/03/03 18:13:23;;;;;;;21.63;19.20;;;7.60;78.00;;;;;;10502046;28;20200;-78
2022/03/03 18:18:25;;;;;;;23.53;19.73;;;7.50;78.90;;;;;;10527819;28;20706;-78
2022/03/03 18:23:29;;;;;;;21.97;17.03;;;7.40;78.90;;;;;;10530895;28;20294;-80
2022/03/03 18:28:31;;;;;;;20.47;17.70;;;7.30;80.70;;;;;;10528367;28;20663;-79
2022/03/03 18:33:34;;;;;;;20.93;18.83;;;7.30;79.40;;;;;;10507219;28;20204;-79
2022/03/03 18:38:38;;;;;;;21.80;19.43;;;7.20;77.90;;;;;;10506453;28;20261;-79
2022/03/03 18:43:40;;;;;;;21.30;19.00;;;7.10;79.20;;;;;;10513405;28;20269;-78
2022/03/03 18:48:44;;;;;;;17.97;16.27;;;7.00;80.00;;;;;;10480604;28;20212;-79
2022/03/03 18:53:47;;;;;;;18.40;15.67;;;6.90;77.80;;;;;;10486967;28;20296;-79
2022/03/03 18:58:50;;;;;;;17.23;14.23;;;6.70;77.50;;;;;;10504104;28;20216;-78
2022/03/03 19:03:52;;;;;;;16.80;15.10;;;6.60;77.80;;;;;;10494705;28;20244;-78
2022/03/03 19:08:55;;;;;;;16.33;14.63;;;6.50;78.30;;;;;;10495357;28;20290;-78
2022/03/03 19:13:57;;;;;;;15.87;14.17;;;6.40;76.20;;;;;;10496918;28;20196;-78
2022/03/03 19:19:00;;;;;;;15.57;14.00;;;6.30;77.20;;;;;;10525103;28;20216;-78
2022/03/03 19:24:05;;;;;;;20.37;18.03;;;6.10;77.70;;;;;;10506541;28;20216;-78
2022/03/03 19:29:07;;;;;;;24.50;19.40;;;6.00;76.60;;;;;;10487042;28;20227;-78
2022/03/03 19:34:14;;;;;;;17.87;15.97;;;5.90;76.10;;;;;;10484538;28;20192;-78
2022/03/03 19:39:18;;;;;;;15.50;13.90;;;5.80;75.20;;;;;;10484827;28;20233;-78
2022/03/03 19:44:20;;;;;;;15.23;13.73;;;5.70;76.10;;;;;;10499530;28;20274;-78
2022/03/03 19:49:22;;;;;;;16.47;14.77;;;5.60;74.90;;;;;;10529394;28;20224;-78
2022/03/03 19:54:26;;;;;;;16.33;13.07;;;5.50;76.90;;;;;;10487949;28;20196;-78
2022/03/03 19:59:28;;;;;;;20.63;16.40;;;5.40;75.50;;;;;;10517020;28;20224;-79
2022/03/03 20:04:32;;;;;;;22.40;15.73;;;5.40;75.60;;;;;;10504550;28;20227;-79
2022/03/03 20:14:55;;;;;;;15.87;14.17;;;5.20;75.60;;;;;;10504444;28;20223;-80
2022/03/03 20:19:58;;;;;;;16.03;12.80;;;5.20;77.60;;;;;;10466561;28;20247;-79
2022/03/03 20:25:01;;;;;;;15.17;13.57;;;5.20;75.90;;;;;;10458428;28;20262;-79
2022/03/03 20:30:06;;;;;;;13.40;12.00;;;5.10;76.10;;;;;;10483503;28;20217;-79
2022/03/03 20:35:10;;;;;;;14.23;12.23;;;5.10;74.00;;;;;;10481954;28;20207;-79
2022/03/03 20:40:15;;;;;;;14.00;12.13;;;5.00;73.60;;;;;;10490297;22;20233;-79
2022/03/03 20:45:17;;;;;;;12.00;10.13;;;5.10;74.00;;;;;;10441607;28;20217;-79
2022/03/03 20:50:19;;;;;;;12.33;10.97;;;5.00;74.80;;;;;;10425658;28;20224;-79
2022/03/03 20:55:25;;;;;;;11.83;10.57;;;4.90;72.60;;;;;;10422442;28;20353;-79
2022/03/03 21:00:27;;;;;;;14.27;11.37;;;4.80;71.70;;;;;;10430788;28;20256;-79
2022/03/03 21:05:29;;;;;;;12.67;11.13;;;4.80;73.60;;;;;;10426785;28;20667;-80
2022/03/03 21:10:33;;;;;;;12.13;10.87;;;4.70;73.40;;;;;;10443295;28;20232;-79
2022/03/03 21:15:35;;;;;;;12.60;11.30;;;4.60;72.60;;;;;;10430927;28;20213;-79
2022/03/03 21:20:37;;;;;;;12.67;11.37;;;4.60;73.40;;;;;;10447067;28;20228;-79
2022/03/03 21:25:42;;;;;;;14.23;12.83;;;4.50;72.10;;;;;;10412808;28;20698;-79
2022/03/03 21:30:47;;;;;;;15.20;12.93;;;4.50;73.70;;;;;;10450865;28;20224;-79
2022/03/03 21:35:49;;;;;;;14.53;12.90;;;4.40;75.90;;;;;;10447983;28;20232;-79
2022/03/03 21:40:53;;;;;;;13.40;12.03;;;4.40;75.80;;;;;;10450479;28;20646;-79
2022/03/03 21:45:56;;;;;;;13.53;11.67;;;4.40;76.30;;;;;;10444540;28;20197;-77
2022/03/03 21:50:58;;;;;;;13.50;11.43;;;4.40;76.10;;;;;;10413578;28;20643;-80
2022/03/03 21:56:02;;;;;;;13.13;11.73;;;4.40;77.50;;;;;;10442251;28;20247;-78
2022/03/03 22:01:06;;;;;;;11.90;10.70;;;4.40;76.90;;;;;;10444914;28;20218;-78
2022/03/03 22:06:08;;;;;;;12.47;11.20;;;4.30;75.40;;;;;;10441848;28;20259;-77
2022/03/03 22:11:12;;;;;;;13.20;11.70;;;4.30;75.50;;;;;;10418857;28;20741;-78
2022/03/03 22:16:14;;;;;;;14.47;11.73;;;4.30;77.00;;;;;;10426828;28;20289;-77
2022/03/03 22:21:17;;;;;;;13.77;12.30;;;4.30;75.80;;;;;;10428327;28;20228;-78
2022/03/03 22:26:21;;;;;;;13.40;11.70;;;4.20;77.00;;;;;;10440367;28;20276;-78
2022/03/03 22:31:23;;;;;;;13.90;12.50;;;4.20;75.90;;;;;;10426108;28;20209;-77
2022/03/03 22:36:29;;;;;;;12.10;10.60;;;4.20;77.50;;;;;;10425664;28;20800;-77
2022/03/03 22:41:32;;;;;;;13.20;11.70;;;4.20;75.10;;;;;;10421727;28;20233;-79
2022/03/03 22:46:35;;;;;;;13.03;11.63;;;4.20;77.40;;;;;;10426822;28;20236;-79
2022/03/03 22:57:03;;;;;;;16.33;14.60;;;4.20;79.10;;;;;;10422020;28;20194;-79
2022/03/03 23:02:05;;;;;;;14.20;12.70;;;4.20;78.30;;;;;;10443097;28;20209;-79
2022/03/03 23:07:19;;;;;;;14.27;12.77;;;4.20;77.90;;;;;;10429031;28;20280;-79
2022/03/03 23:12:25;;;;;;;13.43;11.23;;;4.10;76.90;;;;;;10440497;28;20213;-79
2022/03/03 23:17:27;;;;;;;13.50;12.20;;;4.10;77.40;;;;;;10402779;28;20637;-79
2022/03/03 23:22:30;;;;;;;14.00;12.47;;;4.10;78.00;;;;;;10420160;28;20244;-79
2022/03/03 23:27:34;;;;;;;14.67;12.50;;;4.00;75.40;;;;;;10440840;28;20306;-80
2022/03/03 23:32:36;;;;;;;13.57;12.13;;;4.00;75.50;;;;;;10436283;28;20762;-79
2022/03/03 23:37:39;;;;;;;13.90;12.40;;;3.90;77.00;;;;;;10406320;28;20189;-79
2022/03/03 23:42:42;;;;;;;13.53;12.10;;;3.80;77.80;;;;;;10442926;28;20648;-79
2022/03/03 23:47:44;;;;;;;13.57;12.17;;;3.80;76.10;;;;;;10447122;28;20201;-79
2022/03/03 23:52:46;;;;;;;14.57;13.00;;;3.70;75.90;;;;;;10448481;28;20292;-79
2022/03/03 23:57:50;;;;;;;13.87;12.37;;;3.60;78.70;;;;;;10438977;28;20197;-79
